Informes METAR cercanos

 

LEZL - Sevilla (civ/Mil, Spain
Distancia de la estación: O 16km
Actualización: 19/04/2021 19:30
Despejado
Despejado
 Viento del OSO
Viento: OSO 20 km/h
Temperatura: 23°C
Rocío: 8°C
Humedad: 38%
Barómetro: 1015 hPa
Resumen: Despejado
Visibilidad: greater than 10 km
2021/04/19 17:30 LEZL 191730Z 24011KT 200V290 CAVOK 23/08 Q1015 NOSIG
LEMO - Moron (sp-Usafb), Spain
Distancia de la estación: SSE 27km
Actualización: 19/04/2021 19:30
Despejado
Despejado
 Viento del O
Viento: O 22 km/h
Temperatura: 23°C
Rocío: 12°C
Humedad: 50%
Barómetro: 1016 hPa
Resumen: Despejado
Visibilidad: greater than 10 km
2021/04/19 17:30 LEMO 191730Z 26012KT 210V290 CAVOK 23/12 Q1016 NOSIG